Slater, CO (81653)

4:24 PM MDT on September 23, 2014 (GMT -0600)
Dixon AP, Dixon, WY | Change Station
CLOSE
Current Station
Airport
Location: Dixon AP, Dixon, WY,
Elevation: 6549 ft
Nearby Weather Stations

Elev 6549 ft 41.04 °N, 107.49 °W | Updated 9 minutes ago

Partly Cloudy
Partly Cloudy
72 °F
Feels Like 72 °F
N
10
Wind Variable Wind from WNW

Today
High -- | Low -- °F
--% Chance of Precip.
Yesterday
High -- | Low -- °F
Precip. -- in
6:58 AM 7:05 PM
Waning Crescent, 0% visible
Pressure 30.26 in
Visibility 10.0 miles
Clouds Scattered Clouds 6000 ft
Mostly Cloudy 7000 ft
Dew Point 45 °F
Humidity 38%
Rainfall 0.00 in
Snow Depth 0 in , 0 in , 0 in
UV 2 out of 12
Pollen 6.30 out of 12
Air Quality Not available.
Flu Activity Not available.
METAR KDWX 232215Z AUTO 30009KT 10SM SCT060 BKN070 22/07 A3026 RMK AO2 T02210070

More Conditions Fewer Conditions

Pressure 30.26 in
Visibility 10.0 miles
Clouds Scattered Clouds 6000 ft
Mostly Cloudy 7000 ft
Dew Point 45 °F
Humidity 38%
Rainfall 0.00 in
Snow Depth 0 in , 0 in , 0 in
UV 2 out of 12
Pollen 6.30 out of 12
Air Quality Not available.
Flu Activity Not available.
METAR KDWX 232215Z AUTO 30009KT 10SM SCT060 BKN070 22/07 A3026 RMK AO2 T02210070

More Conditions Fewer Conditions

10-Day Weather Forecast

Almanac

Astronomy

Sep. 23, 2014 Rise Set
Actual Time 6:58 AM MDT 7:05 PM MDT
Civil Twilight 6:31 AM MDT 7:32 PM MDT
Nautical Twilight 5:59 AM MDT 8:04 PM MDT
Astronomical Twilight 5:26 AM MDT 8:37 PM MDT
Moon 6:25 AM MDT 6:45 PM MDT
Length of Visible Light 13h 01m
Length of Day
12h 06m
Tomorrow will be 2m 42s shorter.
Waning Crescent, 0% of the Moon is Illuminated
Today
Waning Crescent
Sep 24
New
Oct 1
First Quarter
Oct 8
Full
Oct 15
Last Quarter

Today's Extremes

State Highs State Lows

Community

WunderPhotos

Upload Photos

1,755,801 photos uploaded!

WunderBlogs® & News

Nearby

Snow Depth

Station Depth Elevation
Niwot 0 in 9910 ft
Columbus Basin 0 in 10785 ft
Tower 0 in 10500 ft
Spud Mountain 0 in 10660 ft
Mccoy Park 9 in 9480 ft

Earthquake Activity

City Distance Mag. Time & Date
No recent earthquake activity has been reported nearby.
Minimum magnitude displayed is 2.5.

Coastal Water Temperatures

Place Temperature
No Stations Reporting

Nearby Weather Stations